Time;durP1;ratioP1;P1;durP2;ratioP2;P2;SDS_P1;SDS_P2;PMS_P1;PMS_P2;Temp;Humidity;BMP_temperature;BMP_pressure;BME280_temperature;BME280_humidity;BME280_pressure;Samples;Min_cycle;Max_cycle;Signal;HPM_P1;HPM_P2
2021/12/17 00:00:57;;;;;;;15.90;10.80;;;;;;;4.65;100.00;100357.11;102656;1314;76238;-75
2021/12/17 00:03:53;;;;;;;17.70;12.00;;;;;;;4.64;100.00;100360.64;102642;1308;69305;-76
2021/12/17 00:08:54;;;;;;;21.60;16.50;;;;;;;4.64;100.00;100356.58;101877;1316;61321;-76
2021/12/17 00:11:22;;;;;;;27.20;18.40;;;;;;;4.63;100.00;100357.84;101863;1317;61591;-76
2021/12/17 00:13:50;;;;;;;22.70;15.20;;;;;;;4.63;100.00;100357.48;101795;1316;74455;-75
2021/12/17 00:16:21;;;;;;;19.80;13.40;;;;;;;4.65;100.00;100355.87;101871;1316;69283;-75
2021/12/17 00:48:45;;;;;;;26.90;13.10;;;;;;;4.49;100.00;100340.36;102430;1307;61428;-76
2021/12/17 00:51:51;;;;;;;22.60;13.90;;;;;;;4.46;100.00;100339.90;102445;1307;62338;-76
2021/12/17 00:54:18;;;;;;;39.70;16.80;;;;;;;4.44;100.00;100342.04;102402;1307;75700;-76
2021/12/17 00:56:51;;;;;;;27.30;13.60;;;;;;;4.44;100.00;100349.63;102425;1310;69287;-77
2021/12/17 00:59:19;;;;;;;36.60;14.20;;;;;;;4.43;100.00;100350.34;102445;1307;73407;-75
2021/12/17 01:01:47;;;;;;;34.10;14.20;;;;;;;4.44;100.00;100348.19;102361;1311;61315;-76
2021/12/17 01:04:14;;;;;;;27.30;10.90;;;;;;;4.45;100.00;100349.59;102237;1313;61311;-76
2021/12/17 01:06:41;;;;;;;16.90;8.60;;;;;;;4.46;100.00;100361.02;102533;1314;75391;-76
2021/12/17 01:09:11;;;;;;;17.70;8.40;;;;;;;4.48;100.00;100362.73;102418;1310;69292;-76
2021/12/17 01:11:37;;;;;;;14.00;7.00;;;;;;;4.50;100.00;100359.88;102255;1314;72464;-76
2021/12/17 01:14:04;;;;;;;13.80;6.90;;;;;;;4.52;100.00;100362.30;102425;1307;61340;-76
2021/12/17 01:16:31;;;;;;;13.30;7.60;;;;;;;4.51;100.00;100354.22;102450;1310;61318;-75
2021/12/17 01:21:41;;;;;;;15.70;6.60;;;;;;;4.53;100.00;100350.14;102537;1308;69650;-75
2021/12/17 01:35:27;;;;;;;15.70;7.90;;;;;;;4.55;100.00;100328.79;102147;1315;70386;-76
2021/12/17 01:38:57;;;;;;;16.60;8.90;;;;;;;4.53;100.00;100323.73;102443;1307;72455;-76
2021/12/17 01:43:42;;;;;;;14.40;8.10;;;;;;;4.48;100.00;100316.98;102414;1307;62150;-75
2021/12/17 01:46:14;;;;;;;12.60;8.10;;;;;;;4.44;100.00;100311.23;102548;1307;73541;-76
2021/12/17 01:59:21;;;;;;;13.00;8.10;;;;;;;4.29;100.00;100298.71;102472;1306;61351;-75
2021/12/17 01:59:47;;;;;;;14.40;8.70;;;;;;;4.22;100.00;100305.70;102444;1308;76550;-75
2021/12/17 02:02:14;;;;;;;14.00;8.30;;;;;;;4.18;100.00;100306.82;102481;1307;70802;-78
2021/12/17 02:04:41;;;;;;;15.30;8.70;;;;;;;4.17;100.00;100311.07;102508;1307;74311;-76
2021/12/17 02:07:08;;;;;;;13.10;8.50;;;;;;;4.16;100.00;100308.81;102472;1308;61316;-76
2021/12/17 02:31:28;;;;;;;20.40;7.50;;;;;;;4.23;100.00;100321.34;102499;1307;74490;-76
2021/12/17 02:33:59;;;;;;;16.90;7.10;;;;;;;4.25;100.00;100321.84;102232;1313;61422;-75
2021/12/17 02:36:30;;;;;;;17.20;8.60;;;;;;;4.26;100.00;100323.05;102493;1307;61351;-76
2021/12/17 02:39:20;;;;;;;11.20;7.10;;;;;;;4.27;100.00;100317.05;102444;1307;75251;-76
2021/12/17 02:47:18;;;;;;;14.40;7.70;;;;;;;4.31;100.00;100309.05;102443;1307;61291;-75
2021/12/17 02:49:47;;;;;;;18.20;9.20;;;;;;;4.31;100.00;100314.85;102485;1307;61311;-76
2021/12/17 02:52:15;;;;;;;16.50;9.20;;;;;;;4.32;100.00;100313.09;102460;1313;77001;-76
2021/12/17 02:54:42;;;;;;;17.60;8.50;;;;;;;4.32;100.00;100304.64;102612;1308;70368;-76
2021/12/17 02:57:12;;;;;;;15.50;8.60;;;;;;;4.32;100.00;100301.81;102493;1307;72112;-76
2021/12/17 02:59:38;;;;;;;16.10;9.00;;;;;;;4.32;100.00;100297.95;102535;1307;61280;-76
2021/12/17 03:02:08;;;;;;;14.70;8.80;;;;;;;4.32;100.00;100298.13;102589;1313;61234;-75
2021/12/17 03:04:38;;;;;;;17.20;9.00;;;;;;;4.33;100.00;100292.64;102622;1307;76394;-76
2021/12/17 03:07:05;;;;;;;17.50;8.50;;;;;;;4.34;100.00;100296.66;102661;1308;69095;-76
2021/12/17 03:10:16;;;;;;;12.00;7.30;;;;;;;4.35;100.00;100294.88;102766;1307;71509;-76
2021/12/17 03:13:06;;;;;;;15.30;8.20;;;;;;;4.37;100.00;100299.25;102569;1307;61219;-75
2021/12/17 03:25:52;;;;;;;11.40;5.80;;;;;;;4.39;100.00;100294.44;104272;1307;61334;-75
2021/12/17 03:28:19;;;;;;;11.90;5.80;;;;;;;4.39;100.00;100287.76;103081;1308;61202;-77
2021/12/17 03:30:46;;;;;;;12.50;5.80;;;;;;;4.38;100.00;100284.26;102584;1307;75304;-76
2021/12/17 03:33:13;;;;;;;16.60;7.50;;;;;;;4.38;100.00;100288.65;102584;1308;69506;-77
2021/12/17 03:35:40;;;;;;;11.80;7.20;;;;;;;4.38;100.00;100290.27;102578;1310;73393;-76
2021/12/17 03:38:07;;;;;;;19.40;8.10;;;;;;;4.37;100.00;100288.86;102528;1308;61316;-76
2021/12/17 03:40:35;;;;;;;15.60;7.30;;;;;;;4.37;100.00;100282.88;102486;1308;61170;-75
2021/12/17 03:43:05;;;;;;;14.00;5.90;;;;;;;4.36;100.00;100279.21;102394;1312;76389;-76
2021/12/17 03:45:31;;;;;;;14.10;5.90;;;;;;;4.35;100.00;100277.83;102514;1307;69748;-77
2021/12/17 03:47:58;;;;;;;8.70;4.80;;;;;;;4.33;100.00;100275.41;102397;1307;74635;-76
2021/12/17 03:50:24;;;;;;;15.10;6.70;;;;;;;4.32;100.00;100276.84;102392;1307;61448;-76
2021/12/17 03:52:51;;;;;;;14.70;6.00;;;;;;;4.30;100.00;100268.95;102451;1307;62352;-76
2021/12/17 03:55:17;;;;;;;14.50;6.30;;;;;;;4.30;100.00;100270.02;102393;1307;61206;-76
2021/12/17 03:57:44;;;;;;;13.50;6.30;;;;;;;4.29;100.00;100268.27;102363;1308;61360;-76
2021/12/17 04:00:12;;;;;;;14.40;5.90;;;;;;;4.29;100.00;100271.45;102408;1314;73467;-76
2021/12/17 04:02:38;;;;;;;14.20;5.30;;;;;;;4.28;100.00;100278.14;102457;1313;61438;-76
2021/12/17 04:05:05;;;;;;;12.80;5.70;;;;;;;4.27;100.00;100284.69;102417;1314;62031;-76
2021/12/17 04:07:32;;;;;;;13.70;7.20;;;;;;;4.27;100.00;100283.46;102385;1307;76297;-76
2021/12/17 04:09:59;;;;;;;19.80;6.70;;;;;;;4.27;100.00;100284.34;102441;1307;70393;-76
2021/12/17 04:12:40;;;;;;;11.00;5.90;;;;;;;4.26;100.00;100287.51;102586;1308;71311;-76
2021/12/17 04:15:08;;;;;;;11.30;5.70;;;;;;;4.26;100.00;100285.92;102580;1306;61428;-75
2021/12/17 04:17:42;;;;;;;13.40;5.80;;;;;;;4.25;100.00;100286.66;104265;1307;61391;-76
2021/12/17 04:20:09;;;;;;;16.30;6.20;;;;;;;4.24;100.00;100291.25;104332;1308;75506;-75
2021/12/17 04:22:36;;;;;;;13.60;6.20;;;;;;;4.24;100.00;100288.95;104145;1308;69520;-76
2021/12/17 04:25:03;;;;;;;15.20;6.30;;;;;;;4.23;100.00;100289.50;102614;1308;73238;-76
2021/12/17 04:27:31;;;;;;;10.40;5.00;;;;;;;4.24;100.00;100296.88;102646;1314;61397;-76
2021/12/17 04:29:58;;;;;;;18.20;6.10;;;;;;;4.24;100.00;100293.54;102570;1307;61318;-75
2021/12/17 04:32:25;;;;;;;12.70;6.40;;;;;;;4.23;100.00;100298.31;102518;1307;76505;-77
2021/12/17 04:34:51;;;;;;;12.70;5.60;;;;;;;4.21;100.00;100302.02;102468;1307;67644;-77
2021/12/17 04:37:18;;;;;;;12.30;6.20;;;;;;;4.21;100.00;100299.04;102442;1307;74254;-76
2021/12/17 04:39:45;;;;;;;10.80;5.60;;;;;;;4.21;100.00;100292.54;102386;1307;61413;-75
2021/12/17 04:42:21;;;;;;;15.40;6.30;;;;;;;4.20;100.00;100287.29;101926;1313;223208;-76
2021/12/17 04:44:53;;;;;;;14.60;5.70;;;;;;;4.19;100.00;100287.30;102409;1308;75304;-75
2021/12/17 04:57:18;;;;;;;13.10;6.40;;;;;;;4.18;100.00;100282.92;102436;1307;70358;-76
2021/12/17 04:58:23;;;;;;;14.40;6.50;;;;;;;4.16;100.00;100284.35;102374;1314;75077;-76
2021/12/17 05:00:49;;;;;;;13.20;6.30;;;;;;;4.15;100.00;100281.56;102403;1307;68623;-75
2021/12/17 05:03:16;;;;;;;14.30;8.30;;;;;;;4.15;100.00;100279.46;102416;1308;74169;-75
2021/12/17 05:05:43;;;;;;;13.10;6.90;;;;;;;4.14;100.00;100278.79;102406;1313;61391;-76
2021/12/17 05:08:15;;;;;;;13.50;7.10;;;;;;;4.13;100.00;100278.61;102419;1314;61166;-77
2021/12/17 05:11:48;;;;;;;11.40;6.60;;;;;;;4.13;100.00;100266.14;102282;1313;75235;-76
2021/12/17 05:19:13;;;;;;;14.00;7.30;;;;;;;4.11;100.00;100277.95;102452;1314;61323;-75
2021/12/17 05:21:40;;;;;;;10.30;6.30;;;;;;;4.12;100.00;100277.95;102386;1307;61481;-75
2021/12/17 05:24:07;;;;;;;13.30;7.10;;;;;;;4.12;100.00;100277.23;102395;1307;76424;-76
2021/12/17 05:26:33;;;;;;;15.30;7.70;;;;;;;4.12;100.00;100276.36;102398;1314;61231;-76
2021/12/17 05:29:00;;;;;;;14.10;6.70;;;;;;;4.12;100.00;100278.46;102381;1307;61472;-77
2021/12/17 05:31:27;;;;;;;17.90;8.30;;;;;;;4.12;100.00;100279.52;102384;1307;61640;-77
2021/12/17 05:33:56;;;;;;;12.40;8.30;;;;;;;4.12;100.00;100277.23;102427;1314;61304;-76
2021/12/17 05:36:22;;;;;;;14.40;7.40;;;;;;;4.12;100.00;100280.77;102409;1307;75420;-76
2021/12/17 05:38:49;;;;;;;20.10;10.60;;;;;;;4.12;100.00;100276.89;102482;1312;70272;-75
2021/12/17 05:41:16;;;;;;;12.70;7.30;;;;;;;4.10;100.00;100266.38;102393;1314;61429;-76
2021/12/17 05:43:43;;;;;;;19.00;9.70;;;;;;;4.09;99.96;100267.11;102067;1307;61493;-75
2021/12/17 05:46:12;;;;;;;12.30;7.80;;;;;;;4.08;100.00;100275.55;102449;1307;61438;-75
2021/12/17 05:48:40;;;;;;;17.50;7.90;;;;;;;4.07;99.98;100279.80;102452;1314;75353;-75
2021/12/17 05:51:10;;;;;;;12.10;8.20;;;;;;;4.06;99.93;100286.16;102188;1313;67448;-75
2021/12/17 05:53:36;;;;;;;16.80;8.00;;;;;;;4.06;99.63;100290.56;102474;1308;72747;-75
2021/12/17 05:56:04;;;;;;;17.90;8.70;;;;;;;4.05;99.89;100285.64;102469;1307;61347;-76
2021/12/17 05:58:30;;;;;;;15.30;8.20;;;;;;;4.04;99.96;100283.03;102478;1311;61996;-76
2021/12/17 06:00:57;;;;;;;17.70;8.50;;;;;;;4.04;99.98;100281.98;102454;1314;76182;-76
2021/12/17 06:03:24;;;;;;;21.00;11.50;;;;;;;4.04;100.00;100276.16;102629;1307;68709;-77
2021/12/17 06:05:51;;;;;;;17.80;10.40;;;;;;;4.05;100.00;100276.50;102402;1308;73338;-76
2021/12/17 06:08:18;;;;;;;18.20;9.10;;;;;;;4.04;99.95;100278.27;102366;1311;61453;-75
2021/12/17 06:10:45;;;;;;;15.60;8.60;;;;;;;4.04;99.77;100288.14;102203;1315;61617;-77
2021/12/17 06:13:12;;;;;;;14.30;8.30;;;;;;;4.03;99.66;100296.77;102430;1307;75243;-76
2021/12/17 06:15:38;;;;;;;15.90;9.20;;;;;;;4.01;99.25;100299.77;102442;1310;69462;-76
2021/12/17 06:18:05;;;;;;;16.40;8.40;;;;;;;3.99;99.27;100305.83;102424;1308;73340;-76
2021/12/17 06:20:32;;;;;;;14.40;8.80;;;;;;;3.99;99.54;100308.27;102182;1313;61349;-75
2021/12/17 06:22:58;;;;;;;13.70;8.10;;;;;;;3.98;98.30;100308.81;102475;1314;62367;-76
2021/12/17 06:25:25;;;;;;;17.30;8.90;;;;;;;3.98;98.19;100305.65;102464;1307;75804;-76
2021/12/17 06:27:52;;;;;;;15.60;9.80;;;;;;;3.98;98.47;100305.47;102426;1307;61382;-77
2021/12/17 06:30:20;;;;;;;17.80;10.20;;;;;;;3.97;98.52;100313.92;102269;1313;71391;-76
2021/12/17 06:32:47;;;;;;;12.30;9.00;;;;;;;3.96;98.47;100316.06;102355;1310;61406;-77
2021/12/17 06:35:15;;;;;;;13.90;9.70;;;;;;;3.95;98.33;100314.67;102373;1310;61388;-76
2021/12/17 06:37:43;;;;;;;14.70;8.90;;;;;;;3.95;98.46;100329.97;102141;1316;75139;-75
2021/12/17 06:40:10;;;;;;;20.80;11.80;;;;;;;3.95;98.42;100328.04;102366;1313;69796;-75
2021/12/17 06:42:37;;;;;;;15.80;10.20;;;;;;;3.94;98.66;100322.59;102387;1311;74199;-75
2021/12/17 06:45:12;;;;;;;16.40;10.40;;;;;;;3.94;98.27;100315.23;102446;1310;61341;-76
2021/12/17 06:47:39;;;;;;;13.00;7.60;;;;;;;3.93;97.70;100311.02;102376;1310;61326;-76
2021/12/17 07:11:23;;;;;;;13.70;7.40;;;;;;;3.90;97.45;100310.20;102395;1311;61367;-77
2021/12/17 07:33:10;;;;;;;14.40;9.10;;;;;;;3.92;96.30;100308.58;102493;1307;69354;-77
2021/12/17 07:35:42;;;;;;;17.90;10.20;;;;;;;3.91;96.11;100316.50;102298;1313;72969;-76
2021/12/17 07:40:56;;;;;;;21.10;11.90;;;;;;;3.93;96.02;100308.90;102479;1314;61407;-77
2021/12/17 07:43:29;;;;;;;21.00;11.40;;;;;;;3.94;95.98;100309.23;102050;1315;73833;-77
2021/12/17 07:45:57;;;;;;;15.40;10.00;;;;;;;3.94;96.22;100309.95;102497;1307;69381;-75
2021/12/17 07:48:25;;;;;;;21.30;9.30;;;;;;;3.92;96.03;100312.44;102428;1307;74236;-80
2021/12/17 07:50:52;;;;;;;19.20;9.10;;;;;;;3.93;96.26;100311.38;102516;1308;61418;-78
2021/12/17 07:53:19;;;;;;;27.30;12.30;;;;;;;3.95;96.29;100310.10;102498;1307;61838;-78
2021/12/17 07:55:46;;;;;;;26.60;12.90;;;;;;;3.97;96.04;100304.96;102495;1307;76785;-77
2021/12/17 07:58:13;;;;;;;22.80;11.80;;;;;;;3.98;95.70;100304.95;102472;1307;69910;-76
2021/12/17 08:00:40;;;;;;;24.10;11.70;;;;;;;3.98;95.40;100311.45;101967;1313;72343;-76
2021/12/17 08:03:07;;;;;;;22.30;12.20;;;;;;;3.99;95.71;100301.05;102469;1308;62121;-76
2021/12/17 08:05:34;;;;;;;17.80;9.40;;;;;;;4.03;95.23;100293.77;102519;1307;61180;-76
2021/12/17 08:08:01;;;;;;;16.30;8.10;;;;;;;4.05;94.75;100284.23;102527;1307;76090;-76
2021/12/17 08:10:28;;;;;;;15.00;7.10;;;;;;;4.08;94.55;100288.77;102513;1314;69305;-77
2021/12/17 08:12:55;;;;;;;20.30;8.00;;;;;;;4.12;94.37;100287.44;102498;1307;73211;-76
2021/12/17 08:15:30;;;;;;;16.70;7.60;;;;;;;4.13;94.02;100282.84;102503;1313;61315;-76
2021/12/17 08:23:50;;;;;;;33.20;13.40;;;;;;;4.16;93.96;100290.69;102489;1314;69586;-76
2021/12/17 08:28:28;;;;;;;15.50;8.60;;;;;;;4.20;94.53;100289.38;102515;1314;61399;-75
2021/12/17 08:30:55;;;;;;;;;;;;;;;4.22;94.71;100296.91;102601;1307;61900;-75
2021/12/17 08:33:22;;;;;;;13.30;7.50;;;;;;;4.23;94.84;100306.04;102540;1307;61319;-76
2021/12/17 08:35:48;;;;;;;15.20;8.10;;;;;;;4.25;94.31;100310.06;102570;1307;69214;-76
2021/12/17 08:38:17;;;;;;;16.40;7.10;;;;;;;4.24;94.09;100314.29;102621;1310;73311;-75
2021/12/17 08:40:44;;;;;;;14.40;7.60;;;;;;;4.21;93.49;100312.59;102644;1314;61330;-76
2021/12/17 08:43:11;;;;;;;17.00;7.90;;;;;;;4.19;93.63;100303.84;102899;1308;61419;-75
2021/12/17 08:45:37;;;;;;;15.00;6.80;;;;;;;4.20;93.72;100306.98;102470;1315;76720;-76
2021/12/17 08:48:04;;;;;;;15.50;8.00;;;;;;;4.20;93.23;100314.20;102973;1314;61433;-76
2021/12/17 08:50:31;;;;;;;18.70;8.60;;;;;;;4.19;94.01;100314.04;102776;1314;73622;-77
2021/12/17 08:52:57;;;;;;;21.30;9.60;;;;;;;4.23;94.06;100325.40;102898;1308;61316;-76
2021/12/17 08:55:24;;;;;;;22.70;9.30;;;;;;;4.24;93.96;100326.42;103335;1308;61327;-76
2021/12/17 08:57:50;;;;;;;18.00;7.80;;;;;;;4.27;93.73;100328.14;103253;1314;73478;-77
2021/12/17 09:00:17;;;;;;;21.60;7.50;;;;;;;4.28;93.26;100329.51;103946;1313;61212;-76
2021/12/17 09:02:44;;;;;;;22.90;8.50;;;;;;;4.27;93.39;100335.69;104154;1314;73432;-77
2021/12/17 09:05:10;;;;;;;12.50;6.00;;;;;;;4.29;93.70;100342.87;104549;1307;61326;-77
2021/12/17 09:07:37;;;;;;;16.00;7.80;;;;;;;4.29;93.04;100341.45;104842;1308;61227;-75
2021/12/17 09:10:06;;;;;;;10.60;6.60;;;;;;;4.29;92.69;100339.88;105117;1314;76409;-76
2021/12/17 09:12:36;;;;;;;17.10;6.10;;;;;;;4.29;92.83;100342.16;104406;1308;69536;-77
2021/12/17 09:15:04;;;;;;;16.10;6.80;;;;;;;4.30;93.19;100345.67;103793;1308;73634;-77
2021/12/17 09:17:31;;;;;;;15.20;7.20;;;;;;;4.32;92.79;100342.46;103637;1307;61312;-76
2021/12/17 09:19:57;;;;;;;17.40;8.30;;;;;;;4.33;93.25;100342.60;103715;1313;61307;-76
2021/12/17 09:22:24;;;;;;;14.60;6.80;;;;;;;4.37;93.36;100343.93;103572;1307;75633;-75
2021/12/17 09:24:51;;;;;;;17.50;7.90;;;;;;;4.39;92.57;100336.86;102588;1314;69532;-75
2021/12/17 09:27:19;;;;;;;18.70;8.50;;;;;;;4.39;92.80;100334.04;102535;1307;74026;-77
2021/12/17 09:29:46;;;;;;;15.20;7.80;;;;;;;4.40;92.69;100327.52;102561;1314;61396;-76
2021/12/17 09:32:13;;;;;;;14.50;7.70;;;;;;;4.41;92.92;100329.07;102411;1315;61257;-78
2021/12/17 09:34:39;;;;;;;18.00;7.40;;;;;;;4.42;92.14;100332.41;102504;1314;61275;-75
2021/12/17 09:37:06;;;;;;;18.80;7.00;;;;;;;4.40;92.64;100332.09;102441;1307;68359;-77
2021/12/17 09:39:33;;;;;;;18.50;7.70;;;;;;;4.42;92.94;100329.77;102498;1314;73218;-77
2021/12/17 09:42:00;;;;;;;13.60;7.50;;;;;;;4.46;92.75;100335.50;102536;1314;61311;-76
2021/12/17 09:44:27;;;;;;;17.00;8.10;;;;;;;4.44;92.35;100331.65;102470;1307;61234;-76
2021/12/17 09:46:57;;;;;;;13.60;7.40;;;;;;;4.43;92.44;100327.11;102214;1314;76344;-76
2021/12/17 09:49:25;;;;;;;18.00;8.20;;;;;;;4.43;92.48;100333.43;102499;1314;69318;-76
2021/12/17 09:51:51;;;;;;;16.80;8.00;;;;;;;4.44;92.73;100330.06;102463;1311;73424;-76
2021/12/17 09:54:19;;;;;;;15.60;6.20;;;;;;;4.45;92.79;100327.77;102484;1310;61431;-79
2021/12/17 09:56:46;;;;;;;16.10;8.00;;;;;;;4.47;92.65;100331.95;102567;1307;61327;-76
2021/12/17 09:59:14;;;;;;;13.70;7.20;;;;;;;4.47;92.64;100332.31;102186;1316;75419;-76
2021/12/17 10:01:43;;;;;;;15.20;8.40;;;;;;;4.47;92.66;100325.09;102484;1311;68559;-76
2021/12/17 10:04:14;;;;;;;16.90;7.70;;;;;;;4.50;92.73;100318.34;102293;1313;74176;-77
2021/12/17 10:06:42;;;;;;;15.60;7.70;;;;;;;4.52;92.63;100307.02;102534;1315;61316;-76
2021/12/17 10:09:09;;;;;;;12.80;7.20;;;;;;;4.53;92.59;100310.17;102442;1308;61240;-76
2021/12/17 10:11:36;;;;;;;16.90;7.30;;;;;;;4.54;92.11;100306.48;102475;1307;76283;-80
2021/12/17 10:14:19;;;;;;;14.90;8.00;;;;;;;4.53;92.17;100307.53;103322;1308;70371;-77
2021/12/17 10:16:46;;;;;;;16.20;7.60;;;;;;;4.53;91.71;100304.71;104170;1308;74079;-78
2021/12/17 10:19:32;;;;;;;16.70;8.30;;;;;;;4.56;92.00;100301.48;104643;1314;60477;-76
2021/12/17 10:22:09;;;;;;;17.00;9.10;;;;;;;4.61;92.11;100302.27;105602;1311;60853;-77
2021/12/17 10:24:38;;;;;;;16.10;7.30;;;;;;;4.61;91.82;100304.90;105352;1314;75417;-76
2021/12/17 10:27:20;;;;;;;18.40;7.90;;;;;;;4.61;91.45;100297.15;105207;1308;70233;-76
2021/12/17 10:29:47;;;;;;;14.00;7.60;;;;;;;4.63;90.81;100296.06;102203;1314;73434;-75
2021/12/17 10:32:20;;;;;;;17.00;8.30;;;;;;;4.65;90.95;100296.57;102613;1311;61412;-76
2021/12/17 10:35:03;;;;;;;19.70;8.10;;;;;;;4.66;91.20;100298.83;102601;1310;61392;-76
2021/12/17 10:37:43;;;;;;;14.50;7.70;;;;;;;4.68;91.34;100289.09;102574;1308;76444;-77
2021/12/17 10:40:20;;;;;;;15.20;7.10;;;;;;;4.68;91.05;100291.72;102467;1307;69365;-77
2021/12/17 10:43:05;;;;;;;14.10;7.30;;;;;;;4.72;91.07;100280.54;102462;1314;73179;-77
2021/12/17 10:45:39;;;;;;;18.70;8.50;;;;;;;4.77;90.61;100276.20;102428;1314;61446;-77
2021/12/17 10:50:51;;;;;;;16.10;7.50;;;;;;;4.79;90.79;100269.64;102445;1308;75161;-76
2021/12/17 10:53:23;;;;;;;18.00;8.70;;;;;;;4.83;90.79;100273.27;102443;1307;69527;-77
2021/12/17 10:55:49;;;;;;;19.00;8.80;;;;;;;4.86;90.15;100268.79;102516;1313;74281;-76
2021/12/17 10:58:17;;;;;;;15.50;7.80;;;;;;;4.87;90.45;100264.19;102489;1308;61412;-76
2021/12/17 11:01:01;;;;;;;18.70;7.70;;;;;;;4.86;90.05;100256.81;102500;1314;61361;-77
2021/12/17 11:03:29;;;;;;;35.60;15.10;;;;;;;4.83;90.32;100262.17;102561;1313;75647;-76
2021/12/17 11:05:56;;;;;;;25.60;13.60;;;;;;;4.79;90.12;100264.36;102523;1314;69279;-75
2021/12/17 11:08:28;;;;;;;28.80;14.50;;;;;;;4.79;90.04;100260.67;102465;1308;71800;-75
2021/12/17 11:11:00;;;;;;;33.70;15.20;;;;;;;4.78;89.95;100261.58;102522;1308;61372;-75
2021/12/17 11:13:27;;;;;;;18.80;8.80;;;;;;;4.79;90.30;100264.91;102553;1313;61263;-74
2021/12/17 11:15:54;;;;;;;14.70;8.30;;;;;;;4.78;90.54;100263.14;102206;1317;76330;-74
2021/12/17 11:18:24;;;;;;;13.30;8.20;;;;;;;4.77;90.64;100269.16;102272;1315;70453;-74
2021/12/17 11:20:52;;;;;;;18.20;7.90;;;;;;;4.77;90.65;100268.46;102423;1308;73358;-77
2021/12/17 11:23:22;;;;;;;14.80;8.20;;;;;;;4.74;90.45;100268.88;102506;1313;61402;-75
2021/12/17 11:25:53;;;;;;;14.60;8.70;;;;;;;4.76;90.72;100269.36;102519;1314;61370;-76
2021/12/17 11:28:21;;;;;;;14.10;8.00;;;;;;;4.76;90.49;100269.72;102560;1314;74151;-75
2021/12/17 11:30:49;;;;;;;15.90;7.90;;;;;;;4.73;90.55;100274.35;102520;1308;68428;-76
2021/12/17 11:33:16;;;;;;;13.30;7.90;;;;;;;4.73;90.56;100276.81;102549;1314;73637;-76
2021/12/17 11:35:46;;;;;;;16.00;8.20;;;;;;;4.71;90.47;100279.16;102563;1308;61321;-75
2021/12/17 11:38:20;;;;;;;16.20;8.90;;;;;;;4.69;90.33;100273.92;102614;1308;61367;-74
2021/12/17 11:40:52;;;;;;;17.70;10.00;;;;;;;4.71;90.79;100272.29;102643;1314;74766;-75
2021/12/17 11:43:50;;;;;;;12.60;8.30;;;;;;;4.72;90.91;100268.59;102612;1312;67464;-75
2021/12/17 11:46:37;;;;;;;14.80;8.70;;;;;;;4.70;90.88;100264.40;102314;1313;73423;-75
2021/12/17 11:49:09;;;;;;;24.00;11.90;;;;;;;4.68;89.91;100262.15;102471;1314;61654;-74
2021/12/17 11:51:36;;;;;;;17.00;9.50;;;;;;;4.67;89.94;100265.17;102490;1307;61320;-74
2021/12/17 11:54:03;;;;;;;15.40;10.10;;;;;;;4.69;89.81;100260.38;102494;1308;75785;-75
2021/12/17 11:56:42;;;;;;;31.50;17.60;;;;;;;4.72;89.86;100257.48;102479;1307;69751;-75
2021/12/17 11:59:31;;;;;;;25.60;13.70;;;;;;;4.75;89.82;100255.49;102463;1314;74472;-75
2021/12/17 12:02:02;;;;;;;37.00;16.20;;;;;;;4.74;89.70;100260.08;102490;1314;61424;-74
2021/12/17 12:04:31;;;;;;;27.50;12.90;;;;;;;4.75;89.50;100256.35;102481;1308;61397;-74
2021/12/17 12:07:24;;;;;;;20.40;12.80;;;;;;;4.73;89.42;100263.09;102527;1314;75157;-74
2021/12/17 12:12:45;;;;;;;20.90;11.00;;;;;;;4.73;89.07;100254.63;102548;1308;73463;-75
2021/12/17 12:15:21;;;;;;;18.80;11.90;;;;;;;4.75;88.49;100258.48;102444;1314;61428;-75
2021/12/17 12:17:57;;;;;;;20.00;13.60;;;;;;;4.74;87.97;100258.48;102436;1308;61427;-73
2021/12/17 12:20:51;;;;;;;23.50;13.80;;;;;;;4.76;87.56;100258.09;102442;1307;75494;-74
2021/12/17 12:23:29;;;;;;;24.80;15.20;;;;;;;4.77;87.21;100253.67;102428;1314;69574;-74
2021/12/17 12:29:05;;;;;;;20.60;13.30;;;;;;;4.76;87.82;100252.10;102418;1314;61402;-73
2021/12/17 12:31:35;;;;;;;23.80;14.40;;;;;;;4.76;87.80;100249.98;101880;1316;62310;-74
2021/12/17 12:34:05;;;;;;;20.30;14.00;;;;;;;4.74;87.37;100249.17;101943;1317;76460;-73
2021/12/17 12:36:51;;;;;;;21.20;13.90;;;;;;;4.70;87.10;100250.33;101934;1317;69568;-75
2021/12/17 12:39:38;;;;;;;16.90;11.70;;;;;;;4.66;87.47;100259.71;101905;1319;74212;-74
2021/12/17 12:42:19;;;;;;;19.60;12.90;;;;;;;4.64;87.52;100258.73;101765;1317;194244;-74
2021/12/17 12:44:46;;;;;;;18.30;13.40;;;;;;;4.61;87.38;100255.63;101472;1322;61229;-73
2021/12/17 12:47:42;;;;;;;22.10;14.70;;;;;;;4.59;87.63;100263.24;101869;1322;75412;-76
2021/12/17 12:50:19;;;;;;;23.70;13.30;;;;;;;4.56;87.48;100268.21;101407;1327;70002;-73
2021/12/17 12:52:55;;;;;;;23.50;14.80;;;;;;;4.52;87.55;100267.62;101394;1322;74307;-74
2021/12/17 12:55:26;;;;;;;28.40;17.60;;;;;;;4.48;88.12;100264.19;101491;1323;61524;-75
2021/12/17 12:58:05;;;;;;;25.70;17.20;;;;;;;4.47;88.14;100260.68;101627;1325;61355;-75
2021/12/17 13:00:35;;;;;;;28.40;17.40;;;;;;;4.45;88.75;100256.68;101221;1327;74306;-75
2021/12/17 13:03:04;;;;;;;29.70;19.60;;;;;;;4.44;88.88;100258.12;101477;1327;69681;-73
2021/12/17 13:05:32;;;;;;;28.00;17.80;;;;;;;4.41;88.72;100253.42;101502;1321;72970;-74
2021/12/17 13:08:02;;;;;;;34.60;19.20;;;;;;;4.38;89.21;100255.40;101880;1320;61278;-75
2021/12/17 13:10:33;;;;;;;28.90;18.70;;;;;;;4.38;89.35;100253.98;101807;1316;61932;-75
2021/12/17 13:13:19;;;;;;;27.30;17.10;;;;;;;4.41;88.66;100249.36;101645;1320;73530;-74
2021/12/17 13:15:51;;;;;;;28.50;18.00;;;;;;;4.42;88.53;100250.92;101869;1317;69475;-75
2021/12/17 13:26:42;;;;;;;33.80;20.90;;;;;;;4.30;88.71;100255.77;101804;1317;76126;-73
2021/12/17 13:29:29;;;;;;;32.00;20.70;;;;;;;4.30;88.96;100254.02;102524;1314;68686;-74
2021/12/17 13:32:11;;;;;;;31.50;18.70;;;;;;;4.28;88.61;100253.00;102491;1311;74323;-74
2021/12/17 13:34:52;;;;;;;30.90;19.80;;;;;;;4.26;88.44;100251.98;102489;1314;61267;-74
2021/12/17 13:37:26;;;;;;;31.70;20.10;;;;;;;4.25;88.73;100249.71;102472;1313;61397;-73
2021/12/17 13:39:58;;;;;;;32.70;19.60;;;;;;;4.25;88.92;100248.67;102481;1307;76492;-75
2021/12/17 13:42:27;;;;;;;31.80;20.10;;;;;;;4.24;88.98;100248.33;102444;1308;70060;-74
2021/12/17 13:44:55;;;;;;;32.60;20.30;;;;;;;4.23;88.93;100250.98;102181;1317;74336;-75
2021/12/17 13:47:27;;;;;;;30.40;18.50;;;;;;;4.22;89.19;100247.49;102520;1314;61391;-74
2021/12/17 13:50:06;;;;;;;31.60;19.50;;;;;;;4.20;89.33;100250.88;102506;1311;61330;-74
2021/12/17 13:52:48;;;;;;;29.70;18.50;;;;;;;4.19;89.63;100248.61;102471;1308;76129;-74
2021/12/17 13:55:19;;;;;;;33.10;19.00;;;;;;;4.17;89.44;100252.67;102245;1315;67417;-74
2021/12/17 13:57:47;;;;;;;32.40;19.50;;;;;;;4.16;89.70;100250.40;102552;1311;74503;-74
2021/12/17 14:00:20;;;;;;;30.00;18.30;;;;;;;4.15;89.72;100250.08;102579;1314;61314;-75
2021/12/17 14:02:49;;;;;;;32.00;18.60;;;;;;;4.12;88.96;100253.31;102683;1314;61541;-74
2021/12/17 14:05:26;;;;;;;34.40;19.60;;;;;;;4.10;88.84;100254.77;102588;1313;76056;-75
2021/12/17 14:07:59;;;;;;;32.20;18.60;;;;;;;4.09;89.18;100245.65;102511;1314;70701;-74
2021/12/17 14:10:32;;;;;;;32.30;19.60;;;;;;;4.07;88.88;100247.61;102671;1314;73651;-74
2021/12/17 14:13:00;;;;;;;35.60;20.50;;;;;;;4.07;89.27;100262.23;103671;1314;61319;-75
2021/12/17 14:15:29;;;;;;;34.10;20.70;;;;;;;4.05;89.09;100256.45;103718;1313;61454;-74
2021/12/17 14:17:59;;;;;;;33.40;20.40;;;;;;;4.05;89.38;100263.30;103394;1314;75746;-75
2021/12/17 14:20:36;;;;;;;29.70;18.00;;;;;;;4.04;89.50;100258.58;102592;1314;69340;-75
2021/12/17 14:23:11;;;;;;;29.00;19.20;;;;;;;4.03;89.38;100258.25;102483;1313;74233;-77
2021/12/17 14:25:44;;;;;;;35.50;20.10;;;;;;;4.02;89.17;100255.45;102023;1317;61335;-76